sensor_id;sensor_type;location;lat;lon;timestamp;temperature;humidity
20345;DHT22;10330;48.816;9.278;2022-12-18T00:01:01;-7.40;99.90
20345;DHT22;10330;48.816;9.278;2022-12-18T00:03:33;-7.40;99.90
20345;DHT22;10330;48.816;9.278;2022-12-18T00:05:59;-7.40;99.90
20345;DHT22;10330;48.816;9.278;2022-12-18T00:08:25;-7.40;99.90
20345;DHT22;10330;48.816;9.278;2022-12-18T00:10:52;-7.40;99.90
20345;DHT22;10330;48.816;9.278;2022-12-18T00:13:18;-7.40;99.90
20345;DHT22;10330;48.816;9.278;2022-12-18T00:15:44;-7.40;99.90
20345;DHT22;10330;48.816;9.278;2022-12-18T00:18:10;-7.40;99.90
20345;DHT22;10330;48.816;9.278;2022-12-18T00:20:39;-7.50;99.90
20345;DHT22;10330;48.816;9.278;2022-12-18T00:23:06;-7.50;99.90
20345;DHT22;10330;48.816;9.278;2022-12-18T00:25:36;-7.50;99.90
20345;DHT22;10330;48.816;9.278;2022-12-18T00:28:03;-7.60;99.90
20345;DHT22;10330;48.816;9.278;2022-12-18T00:30:29;-7.70;99.90
20345;DHT22;10330;48.816;9.278;2022-12-18T00:32:57;-7.60;99.90
20345;DHT22;10330;48.816;9.278;2022-12-18T00:35:25;-7.60;99.90
20345;DHT22;10330;48.816;9.278;2022-12-18T00:37:52;-7.60;99.90
20345;DHT22;10330;48.816;9.278;2022-12-18T00:40:18;-7.60;99.90
20345;DHT22;10330;48.816;9.278;2022-12-18T00:42:44;-7.60;99.90
20345;DHT22;10330;48.816;9.278;2022-12-18T00:45:31;-7.60;99.90
20345;DHT22;10330;48.816;9.278;2022-12-18T00:48:05;-7.60;99.90
20345;DHT22;10330;48.816;9.278;2022-12-18T00:50:31;-7.50;99.90
20345;DHT22;10330;48.816;9.278;2022-12-18T00:53:00;-7.50;99.90
20345;DHT22;10330;48.816;9.278;2022-12-18T00:55:26;-7.60;99.90
20345;DHT22;10330;48.816;9.278;2022-12-18T00:57:53;-7.60;99.90
20345;DHT22;10330;48.816;9.278;2022-12-18T01:00:20;-7.60;99.90
20345;DHT22;10330;48.816;9.278;2022-12-18T01:02:46;-7.60;99.90
20345;DHT22;10330;48.816;9.278;2022-12-18T01:05:13;-7.60;99.90
20345;DHT22;10330;48.816;9.278;2022-12-18T01:07:39;-7.70;99.90
20345;DHT22;10330;48.816;9.278;2022-12-18T01:10:07;-7.80;99.90
20345;DHT22;10330;48.816;9.278;2022-12-18T01:12:37;-7.90;99.90
20345;DHT22;10330;48.816;9.278;2022-12-18T01:15:05;-8.10;99.90
20345;DHT22;10330;48.816;9.278;2022-12-18T01:17:32;-8.20;99.90
20345;DHT22;10330;48.816;9.278;2022-12-18T01:20:04;-8.30;99.90
20345;DHT22;10330;48.816;9.278;2022-12-18T01:22:36;-8.40;99.90
20345;DHT22;10330;48.816;9.278;2022-12-18T01:25:05;-8.30;99.90
20345;DHT22;10330;48.816;9.278;2022-12-18T01:27:33;-8.30;99.90
20345;DHT22;10330;48.816;9.278;2022-12-18T01:29:59;-8.30;99.90
20345;DHT22;10330;48.816;9.278;2022-12-18T01:32:26;-8.30;99.90
20345;DHT22;10330;48.816;9.278;2022-12-18T01:34:52;-8.30;99.90
20345;DHT22;10330;48.816;9.278;2022-12-18T01:37:19;-8.30;99.90
20345;DHT22;10330;48.816;9.278;2022-12-18T01:39:45;-8.30;99.90
20345;DHT22;10330;48.816;9.278;2022-12-18T01:42:14;-8.30;99.90
20345;DHT22;10330;48.816;9.278;2022-12-18T01:49:59;-8.20;99.90
20345;DHT22;10330;48.816;9.278;2022-12-18T01:52:28;-8.10;99.90
20345;DHT22;10330;48.816;9.278;2022-12-18T01:54:56;-8.10;99.90
20345;DHT22;10330;48.816;9.278;2022-12-18T01:57:23;-8.10;99.90
20345;DHT22;10330;48.816;9.278;2022-12-18T01:59:52;-8.10;99.90
20345;DHT22;10330;48.816;9.278;2022-12-18T02:02:20;-8.00;99.90
20345;DHT22;10330;48.816;9.278;2022-12-18T02:04:47;-8.10;99.90
20345;DHT22;10330;48.816;9.278;2022-12-18T02:10:15;-8.10;99.90
20345;DHT22;10330;48.816;9.278;2022-12-18T02:12:51;-8.10;99.90
20345;DHT22;10330;48.816;9.278;2022-12-18T02:18:19;-8.00;99.90
20345;DHT22;10330;48.816;9.278;2022-12-18T02:21:15;-8.00;99.90
20345;DHT22;10330;48.816;9.278;2022-12-18T02:24:13;-8.00;99.90
20345;DHT22;10330;48.816;9.278;2022-12-18T02:26:55;-8.00;99.90
20345;DHT22;10330;48.816;9.278;2022-12-18T02:29:29;-7.90;99.90
20345;DHT22;10330;48.816;9.278;2022-12-18T02:31:58;-7.90;99.90
20345;DHT22;10330;48.816;9.278;2022-12-18T02:34:32;-7.90;99.90
20345;DHT22;10330;48.816;9.278;2022-12-18T02:37:05;-7.90;99.90
20345;DHT22;10330;48.816;9.278;2022-12-18T02:39:35;-7.80;99.90
20345;DHT22;10330;48.816;9.278;2022-12-18T02:42:04;-7.80;99.90
20345;DHT22;10330;48.816;9.278;2022-12-18T02:44:54;-7.90;99.90
20345;DHT22;10330;48.816;9.278;2022-12-18T02:47:26;-7.90;99.90
20345;DHT22;10330;48.816;9.278;2022-12-18T02:58:50;-7.90;99.90
20345;DHT22;10330;48.816;9.278;2022-12-18T03:01:55;-8.00;99.90
20345;DHT22;10330;48.816;9.278;2022-12-18T03:04:26;-8.00;99.90
20345;DHT22;10330;48.816;9.278;2022-12-18T03:07:02;-7.90;99.90
20345;DHT22;10330;48.816;9.278;2022-12-18T03:09:36;-7.90;99.90
20345;DHT22;10330;48.816;9.278;2022-12-18T03:12:30;-7.90;99.90
20345;DHT22;10330;48.816;9.278;2022-12-18T03:15:13;-8.00;99.90
20345;DHT22;10330;48.816;9.278;2022-12-18T03:17:46;-8.00;99.90
20345;DHT22;10330;48.816;9.278;2022-12-18T03:20:19;-8.00;99.90
20345;DHT22;10330;48.816;9.278;2022-12-18T03:22:51;-8.00;99.90
20345;DHT22;10330;48.816;9.278;2022-12-18T03:25:19;-8.00;99.90
20345;DHT22;10330;48.816;9.278;2022-12-18T03:27:49;-8.00;99.90
20345;DHT22;10330;48.816;9.278;2022-12-18T03:30:17;-8.00;99.90
20345;DHT22;10330;48.816;9.278;2022-12-18T03:32:52;-8.00;99.90
20345;DHT22;10330;48.816;9.278;2022-12-18T03:35:24;-8.00;99.90
20345;DHT22;10330;48.816;9.278;2022-12-18T03:37:52;-8.00;99.90
20345;DHT22;10330;48.816;9.278;2022-12-18T03:40:21;-8.00;99.90
20345;DHT22;10330;48.816;9.278;2022-12-18T03:42:58;-8.00;99.90
20345;DHT22;10330;48.816;9.278;2022-12-18T03:45:35;-8.10;99.90
20345;DHT22;10330;48.816;9.278;2022-12-18T03:48:07;-8.10;99.90
20345;DHT22;10330;48.816;9.278;2022-12-18T03:50:54;-8.10;99.90
20345;DHT22;10330;48.816;9.278;2022-12-18T03:56:02;-8.20;99.90
20345;DHT22;10330;48.816;9.278;2022-12-18T03:58:36;-8.20;99.90
20345;DHT22;10330;48.816;9.278;2022-12-18T04:01:20;-8.30;99.90
20345;DHT22;10330;48.816;9.278;2022-12-18T04:03:49;-8.30;99.90
20345;DHT22;10330;48.816;9.278;2022-12-18T04:06:18;-8.30;99.90
20345;DHT22;10330;48.816;9.278;2022-12-18T04:08:45;-8.40;99.90
20345;DHT22;10330;48.816;9.278;2022-12-18T04:11:15;-8.40;99.90
20345;DHT22;10330;48.816;9.278;2022-12-18T04:13:44;-8.40;99.90
20345;DHT22;10330;48.816;9.278;2022-12-18T04:16:22;-8.40;99.90
20345;DHT22;10330;48.816;9.278;2022-12-18T04:18:52;-8.40;99.90
20345;DHT22;10330;48.816;9.278;2022-12-18T04:21:20;-8.40;99.90
20345;DHT22;10330;48.816;9.278;2022-12-18T04:23:48;-8.40;99.90
20345;DHT22;10330;48.816;9.278;2022-12-18T04:26:14;-8.40;99.90
20345;DHT22;10330;48.816;9.278;2022-12-18T04:28:52;-8.40;99.90
20345;DHT22;10330;48.816;9.278;2022-12-18T04:31:18;-8.40;99.90
20345;DHT22;10330;48.816;9.278;2022-12-18T04:33:44;-8.40;99.90
20345;DHT22;10330;48.816;9.278;2022-12-18T04:36:11;-8.40;99.90
20345;DHT22;10330;48.816;9.278;2022-12-18T04:38:39;-8.40;99.90
20345;DHT22;10330;48.816;9.278;2022-12-18T04:41:09;-8.40;99.90
20345;DHT22;10330;48.816;9.278;2022-12-18T04:43:39;-8.30;99.90
20345;DHT22;10330;48.816;9.278;2022-12-18T04:46:07;-8.30;99.90
20345;DHT22;10330;48.816;9.278;2022-12-18T04:48:34;-8.30;99.90
20345;DHT22;10330;48.816;9.278;2022-12-18T04:51:02;-8.30;99.90
20345;DHT22;10330;48.816;9.278;2022-12-18T04:53:28;-8.30;99.90
20345;DHT22;10330;48.816;9.278;2022-12-18T04:56:11;-8.40;99.90
20345;DHT22;10330;48.816;9.278;2022-12-18T04:58:38;-8.40;99.90
20345;DHT22;10330;48.816;9.278;2022-12-18T05:01:05;-8.40;99.90
20345;DHT22;10330;48.816;9.278;2022-12-18T05:03:31;-8.40;99.90
20345;DHT22;10330;48.816;9.278;2022-12-18T05:05:57;-8.40;99.90
20345;DHT22;10330;48.816;9.278;2022-12-18T05:08:24;-8.50;99.90
20345;DHT22;10330;48.816;9.278;2022-12-18T05:10:57;-8.50;99.90
20345;DHT22;10330;48.816;9.278;2022-12-18T05:13:24;-8.50;99.90
20345;DHT22;10330;48.816;9.278;2022-12-18T05:15:54;-8.50;99.90
20345;DHT22;10330;48.816;9.278;2022-12-18T05:18:22;-8.60;99.90
20345;DHT22;10330;48.816;9.278;2022-12-18T05:20:52;-8.50;99.90
20345;DHT22;10330;48.816;9.278;2022-12-18T05:23:20;-8.50;99.90
20345;DHT22;10330;48.816;9.278;2022-12-18T05:26:00;-8.50;99.90
20345;DHT22;10330;48.816;9.278;2022-12-18T05:28:28;-8.50;99.90
20345;DHT22;10330;48.816;9.278;2022-12-18T05:30:56;-8.50;99.90
20345;DHT22;10330;48.816;9.278;2022-12-18T05:33:24;-8.50;99.90
20345;DHT22;10330;48.816;9.278;2022-12-18T05:35:55;-8.50;99.90
20345;DHT22;10330;48.816;9.278;2022-12-18T05:38:24;-8.50;99.90
20345;DHT22;10330;48.816;9.278;2022-12-18T05:40:51;-8.60;99.90
20345;DHT22;10330;48.816;9.278;2022-12-18T05:43:19;-8.60;99.90
20345;DHT22;10330;48.816;9.278;2022-12-18T05:45:45;-8.60;99.90
20345;DHT22;10330;48.816;9.278;2022-12-18T05:48:11;-8.60;99.90
20345;DHT22;10330;48.816;9.278;2022-12-18T05:50:40;-8.60;99.90
20345;DHT22;10330;48.816;9.278;2022-12-18T05:53:08;-8.60;99.90
20345;DHT22;10330;48.816;9.278;2022-12-18T05:55:39;-8.50;99.90
20345;DHT22;10330;48.816;9.278;2022-12-18T05:58:07;-8.50;99.90
20345;DHT22;10330;48.816;9.278;2022-12-18T06:00:39;-8.50;99.90
20345;DHT22;10330;48.816;9.278;2022-12-18T06:03:07;-8.50;99.90
20345;DHT22;10330;48.816;9.278;2022-12-18T06:05:41;-8.50;99.90
20345;DHT22;10330;48.816;9.278;2022-12-18T06:08:08;-8.50;99.90
20345;DHT22;10330;48.816;9.278;2022-12-18T06:10:34;-8.50;99.90
20345;DHT22;10330;48.816;9.278;2022-12-18T06:13:01;-8.40;99.90
20345;DHT22;10330;48.816;9.278;2022-12-18T06:15:27;-8.40;99.90
20345;DHT22;10330;48.816;9.278;2022-12-18T06:17:53;-8.40;99.90
20345;DHT22;10330;48.816;9.278;2022-12-18T06:20:20;-8.40;99.90
20345;DHT22;10330;48.816;9.278;2022-12-18T06:22:46;-8.50;99.90
20345;DHT22;10330;48.816;9.278;2022-12-18T06:25:13;-8.50;99.90
20345;DHT22;10330;48.816;9.278;2022-12-18T06:27:39;-8.40;99.90
20345;DHT22;10330;48.816;9.278;2022-12-18T06:30:06;-8.50;99.90
20345;DHT22;10330;48.816;9.278;2022-12-18T06:32:32;-8.40;99.90
20345;DHT22;10330;48.816;9.278;2022-12-18T06:34:58;-8.40;99.90
20345;DHT22;10330;48.816;9.278;2022-12-18T06:37:25;-8.40;99.90
20345;DHT22;10330;48.816;9.278;2022-12-18T06:39:55;-8.40;99.90
20345;DHT22;10330;48.816;9.278;2022-12-18T06:42:23;-8.50;99.90
20345;DHT22;10330;48.816;9.278;2022-12-18T06:44:49;-8.50;99.90
20345;DHT22;10330;48.816;9.278;2022-12-18T06:47:15;-8.60;99.90
20345;DHT22;10330;48.816;9.278;2022-12-18T06:49:42;-8.60;99.90
20345;DHT22;10330;48.816;9.278;2022-12-18T06:52:08;-8.60;99.90
20345;DHT22;10330;48.816;9.278;2022-12-18T06:54:36;-8.60;99.90
20345;DHT22;10330;48.816;9.278;2022-12-18T06:57:02;-8.60;99.90
20345;DHT22;10330;48.816;9.278;2022-12-18T06:59:28;-8.70;99.90
20345;DHT22;10330;48.816;9.278;2022-12-18T07:01:55;-8.80;99.90
20345;DHT22;10330;48.816;9.278;2022-12-18T07:04:21;-8.80;99.90
20345;DHT22;10330;48.816;9.278;2022-12-18T07:06:47;-8.70;99.90
20345;DHT22;10330;48.816;9.278;2022-12-18T07:09:13;-8.70;99.90
20345;DHT22;10330;48.816;9.278;2022-12-18T07:11:40;-8.60;99.90
20345;DHT22;10330;48.816;9.278;2022-12-18T07:14:11;-8.60;99.90
20345;DHT22;10330;48.816;9.278;2022-12-18T07:16:37;-8.60;99.90
20345;DHT22;10330;48.816;9.278;2022-12-18T07:19:04;-8.60;99.90
20345;DHT22;10330;48.816;9.278;2022-12-18T07:21:30;-8.60;99.90
20345;DHT22;10330;48.816;9.278;2022-12-18T07:23:56;-8.60;99.90
20345;DHT22;10330;48.816;9.278;2022-12-18T07:26:23;-8.60;99.90
20345;DHT22;10330;48.816;9.278;2022-12-18T07:28:49;-8.60;99.90
20345;DHT22;10330;48.816;9.278;2022-12-18T07:31:18;-8.60;99.90
20345;DHT22;10330;48.816;9.278;2022-12-18T07:33:46;-8.80;99.90
20345;DHT22;10330;48.816;9.278;2022-12-18T07:36:13;-8.80;99.90
20345;DHT22;10330;48.816;9.278;2022-12-18T07:38:39;-8.80;99.90
20345;DHT22;10330;48.816;9.278;2022-12-18T07:41:12;-8.70;99.90
20345;DHT22;10330;48.816;9.278;2022-12-18T07:43:39;-8.70;99.90
20345;DHT22;10330;48.816;9.278;2022-12-18T07:46:06;-8.60;99.90
20345;DHT22;10330;48.816;9.278;2022-12-18T07:48:32;-8.60;99.90
20345;DHT22;10330;48.816;9.278;2022-12-18T07:51:03;-8.50;99.90
20345;DHT22;10330;48.816;9.278;2022-12-18T07:53:30;-8.40;99.90
20345;DHT22;10330;48.816;9.278;2022-12-18T07:56:02;-8.40;99.90
20345;DHT22;10330;48.816;9.278;2022-12-18T07:58:29;-8.40;99.90
20345;DHT22;10330;48.816;9.278;2022-12-18T08:01:07;-8.30;99.90
20345;DHT22;10330;48.816;9.278;2022-12-18T08:03:33;-8.30;99.90
20345;DHT22;10330;48.816;9.278;2022-12-18T08:09:09;-8.20;99.90
20345;DHT22;10330;48.816;9.278;2022-12-18T08:11:54;-8.10;99.90
20345;DHT22;10330;48.816;9.278;2022-12-18T08:14:22;-8.10;99.90
20345;DHT22;10330;48.816;9.278;2022-12-18T08:16:48;-8.10;99.90
20345;DHT22;10330;48.816;9.278;2022-12-18T08:19:15;-8.10;99.90
20345;DHT22;10330;48.816;9.278;2022-12-18T08:21:41;-8.00;99.90
20345;DHT22;10330;48.816;9.278;2022-12-18T08:24:09;-8.00;99.90
20345;DHT22;10330;48.816;9.278;2022-12-18T08:26:35;-7.90;99.90
20345;DHT22;10330;48.816;9.278;2022-12-18T08:29:01;-7.90;99.90
20345;DHT22;10330;48.816;9.278;2022-12-18T08:31:30;-7.80;99.90
20345;DHT22;10330;48.816;9.278;2022-12-18T08:33:57;-7.80;99.90
20345;DHT22;10330;48.816;9.278;2022-12-18T08:36:24;-7.90;99.90
20345;DHT22;10330;48.816;9.278;2022-12-18T08:38:50;-7.80;99.90
20345;DHT22;10330;48.816;9.278;2022-12-18T08:41:17;-7.70;99.90
20345;DHT22;10330;48.816;9.278;2022-12-18T08:43:44;-7.70;99.90
20345;DHT22;10330;48.816;9.278;2022-12-18T08:46:34;-7.70;99.90
20345;DHT22;10330;48.816;9.278;2022-12-18T08:49:01;-7.50;99.90
20345;DHT22;10330;48.816;9.278;2022-12-18T08:51:28;-7.50;99.90
20345;DHT22;10330;48.816;9.278;2022-12-18T08:54:01;-7.50;99.90
20345;DHT22;10330;48.816;9.278;2022-12-18T08:56:28;-7.50;99.90
20345;DHT22;10330;48.816;9.278;2022-12-18T08:58:56;-7.40;99.90
20345;DHT22;10330;48.816;9.278;2022-12-18T09:01:22;-7.30;99.90
20345;DHT22;10330;48.816;9.278;2022-12-18T09:03:50;-7.30;99.90
20345;DHT22;10330;48.816;9.278;2022-12-18T09:06:18;-7.20;99.90
20345;DHT22;10330;48.816;9.278;2022-12-18T09:08:44;-7.10;99.90
20345;DHT22;10330;48.816;9.278;2022-12-18T09:11:14;-7.00;99.90
20345;DHT22;10330;48.816;9.278;2022-12-18T09:13:40;-7.00;99.90
20345;DHT22;10330;48.816;9.278;2022-12-18T09:16:07;-6.90;99.90
20345;DHT22;10330;48.816;9.278;2022-12-18T09:18:34;-6.80;99.90
20345;DHT22;10330;48.816;9.278;2022-12-18T09:21:19;-6.70;99.90
20345;DHT22;10330;48.816;9.278;2022-12-18T09:23:50;-6.60;99.90
20345;DHT22;10330;48.816;9.278;2022-12-18T09:26:17;-6.50;99.90
20345;DHT22;10330;48.816;9.278;2022-12-18T09:28:43;-6.40;99.90
20345;DHT22;10330;48.816;9.278;2022-12-18T09:31:11;-6.20;99.90
20345;DHT22;10330;48.816;9.278;2022-12-18T09:33:41;-6.10;99.90
20345;DHT22;10330;48.816;9.278;2022-12-18T09:36:09;-6.00;99.90
20345;DHT22;10330;48.816;9.278;2022-12-18T09:38:36;-5.90;99.90
20345;DHT22;10330;48.816;9.278;2022-12-18T09:41:33;-5.80;99.90
20345;DHT22;10330;48.816;9.278;2022-12-18T09:49:27;-5.60;99.90
20345;DHT22;10330;48.816;9.278;2022-12-18T09:52:19;-5.50;99.90
20345;DHT22;10330;48.816;9.278;2022-12-18T09:54:55;-5.40;99.90
20345;DHT22;10330;48.816;9.278;2022-12-18T09:57:24;-5.30;99.90
20345;DHT22;10330;48.816;9.278;2022-12-18T09:59:58;-5.10;99.90
20345;DHT22;10330;48.816;9.278;2022-12-18T10:02:39;-5.00;99.90
20345;DHT22;10330;48.816;9.278;2022-12-18T10:10:51;-4.50;99.90
20345;DHT22;10330;48.816;9.278;2022-12-18T10:21:30;-3.40;99.90
20345;DHT22;10330;48.816;9.278;2022-12-18T10:26:31;-2.50;99.90
20345;DHT22;10330;48.816;9.278;2022-12-18T10:28:59;-2.20;99.90
20345;DHT22;10330;48.816;9.278;2022-12-18T10:31:26;-1.70;99.90
20345;DHT22;10330;48.816;9.278;2022-12-18T10:33:56;-1.40;99.90
20345;DHT22;10330;48.816;9.278;2022-12-18T10:36:24;-1.10;99.90
20345;DHT22;10330;48.816;9.278;2022-12-18T10:38:50;-0.80;99.90
20345;DHT22;10330;48.816;9.278;2022-12-18T10:43:48;-0.40;99.90
20345;DHT22;10330;48.816;9.278;2022-12-18T10:46:17;-0.30;99.90
20345;DHT22;10330;48.816;9.278;2022-12-18T10:48:50;0.00;99.90
20345;DHT22;10330;48.816;9.278;2022-12-18T10:51:30;0.30;99.90
20345;DHT22;10330;48.816;9.278;2022-12-18T10:56:30;0.40;99.90
20345;DHT22;10330;48.816;9.278;2022-12-18T10:59:03;0.30;99.90
20345;DHT22;10330;48.816;9.278;2022-12-18T11:04:29;0.90;99.90
20345;DHT22;10330;48.816;9.278;2022-12-18T11:07:06;0.90;99.90
20345;DHT22;10330;48.816;9.278;2022-12-18T11:09:35;1.20;99.90
20345;DHT22;10330;48.816;9.278;2022-12-18T11:12:15;1.50;99.90
20345;DHT22;10330;48.816;9.278;2022-12-18T11:14:47;1.70;99.90
20345;DHT22;10330;48.816;9.278;2022-12-18T11:17:43;1.90;99.90
20345;DHT22;10330;48.816;9.278;2022-12-18T11:20:31;2.00;99.90
20345;DHT22;10330;48.816;9.278;2022-12-18T11:23:14;2.20;99.90
20345;DHT22;10330;48.816;9.278;2022-12-18T11:25:59;2.40;99.90
20345;DHT22;10330;48.816;9.278;2022-12-18T11:29:09;2.60;99.90
20345;DHT22;10330;48.816;9.278;2022-12-18T11:31:36;2.80;99.90
20345;DHT22;10330;48.816;9.278;2022-12-18T11:34:27;2.90;99.90
20345;DHT22;10330;48.816;9.278;2022-12-18T11:36:54;3.20;99.90
20345;DHT22;10330;48.816;9.278;2022-12-18T11:39:37;3.10;99.90
20345;DHT22;10330;48.816;9.278;2022-12-18T11:42:13;3.20;99.90
20345;DHT22;10330;48.816;9.278;2022-12-18T11:44:49;3.30;99.90
20345;DHT22;10330;48.816;9.278;2022-12-18T11:47:21;3.50;99.90
20345;DHT22;10330;48.816;9.278;2022-12-18T11:49:51;3.60;99.90
20345;DHT22;10330;48.816;9.278;2022-12-18T11:52:35;3.80;99.90
20345;DHT22;10330;48.816;9.278;2022-12-18T11:55:24;3.80;99.90
20345;DHT22;10330;48.816;9.278;2022-12-18T12:00:56;3.80;99.90
20345;DHT22;10330;48.816;9.278;2022-12-18T12:06:41;4.40;99.90
20345;DHT22;10330;48.816;9.278;2022-12-18T12:12:49;3.80;99.90
20345;DHT22;10330;48.816;9.278;2022-12-18T12:28:54;4.00;99.90
20345;DHT22;10330;48.816;9.278;2022-12-18T12:39:37;3.30;99.90
20345;DHT22;10330;48.816;9.278;2022-12-18T12:42:06;3.10;99.90
20345;DHT22;10330;48.816;9.278;2022-12-18T12:45:05;3.10;99.90
20345;DHT22;10330;48.816;9.278;2022-12-18T12:47:39;3.30;99.90
20345;DHT22;10330;48.816;9.278;2022-12-18T12:50:15;3.20;99.90
20345;DHT22;10330;48.816;9.278;2022-12-18T12:52:46;3.00;99.90
20345;DHT22;10330;48.816;9.278;2022-12-18T12:55:28;3.50;99.90
20345;DHT22;10330;48.816;9.278;2022-12-18T12:58:20;4.20;99.90
20345;DHT22;10330;48.816;9.278;2022-12-18T13:01:17;4.40;99.90
20345;DHT22;10330;48.816;9.278;2022-12-18T13:04:14;4.40;99.90
20345;DHT22;10330;48.816;9.278;2022-12-18T13:09:26;4.90;99.90
20345;DHT22;10330;48.816;9.278;2022-12-18T13:12:05;4.90;99.90
20345;DHT22;10330;48.816;9.278;2022-12-18T13:14:54;4.50;99.90
20345;DHT22;10330;48.816;9.278;2022-12-18T13:17:37;4.00;99.90
20345;DHT22;10330;48.816;9.278;2022-12-18T13:22:42;3.60;99.90
20345;DHT22;10330;48.816;9.278;2022-12-18T13:25:31;3.50;99.90
20345;DHT22;10330;48.816;9.278;2022-12-18T13:28:04;3.20;99.90
20345;DHT22;10330;48.816;9.278;2022-12-18T13:38:34;2.70;99.90
20345;DHT22;10330;48.816;9.278;2022-12-18T13:46:46;2.20;99.90
20345;DHT22;10330;48.816;9.278;2022-12-18T13:51:54;1.90;99.90
20345;DHT22;10330;48.816;9.278;2022-12-18T13:54:40;1.90;99.90
20345;DHT22;10330;48.816;9.278;2022-12-18T13:57:34;2.00;99.90
20345;DHT22;10330;48.816;9.278;2022-12-18T14:00:33;1.90;99.90
20345;DHT22;10330;48.816;9.278;2022-12-18T14:03:15;1.90;99.90
20345;DHT22;10330;48.816;9.278;2022-12-18T14:06:00;1.80;99.90
20345;DHT22;10330;48.816;9.278;2022-12-18T14:08:39;1.80;99.90
20345;DHT22;10330;48.816;9.278;2022-12-18T14:11:19;1.60;99.90
20345;DHT22;10330;48.816;9.278;2022-12-18T14:13:50;1.60;99.90
20345;DHT22;10330;48.816;9.278;2022-12-18T14:16:23;1.50;99.90
20345;DHT22;10330;48.816;9.278;2022-12-18T14:18:54;1.30;99.90
20345;DHT22;10330;48.816;9.278;2022-12-18T14:21:28;1.10;99.90
20345;DHT22;10330;48.816;9.278;2022-12-18T14:24:17;1.00;99.90
20345;DHT22;10330;48.816;9.278;2022-12-18T14:26:50;1.00;99.90
20345;DHT22;10330;48.816;9.278;2022-12-18T14:29:36;0.90;99.90
20345;DHT22;10330;48.816;9.278;2022-12-18T14:32:13;0.70;99.90
20345;DHT22;10330;48.816;9.278;2022-12-18T14:34:51;0.60;99.90
20345;DHT22;10330;48.816;9.278;2022-12-18T14:46:45;-0.10;99.90
20345;DHT22;10330;48.816;9.278;2022-12-18T14:49:26;-0.20;99.90
20345;DHT22;10330;48.816;9.278;2022-12-18T14:52:12;-0.20;99.90
20345;DHT22;10330;48.816;9.278;2022-12-18T14:54:46;-0.30;99.90
20345;DHT22;10330;48.816;9.278;2022-12-18T14:57:32;-0.40;99.90
20345;DHT22;10330;48.816;9.278;2022-12-18T15:00:15;-0.50;99.90
20345;DHT22;10330;48.816;9.278;2022-12-18T15:02:43;-0.60;99.90
20345;DHT22;10330;48.816;9.278;2022-12-18T15:05:26;-0.70;99.90
20345;DHT22;10330;48.816;9.278;2022-12-18T15:07:55;-0.80;99.90
20345;DHT22;10330;48.816;9.278;2022-12-18T15:10:29;-0.90;99.90
20345;DHT22;10330;48.816;9.278;2022-12-18T15:18:15;-1.20;99.90
20345;DHT22;10330;48.816;9.278;2022-12-18T15:26:14;-1.40;99.90
20345;DHT22;10330;48.816;9.278;2022-12-18T15:28:57;-1.50;99.90
20345;DHT22;10330;48.816;9.278;2022-12-18T15:31:30;-1.60;99.90
20345;DHT22;10330;48.816;9.278;2022-12-18T15:36:28;-1.60;99.90
20345;DHT22;10330;48.816;9.278;2022-12-18T15:38:56;-1.80;99.90
20345;DHT22;10330;48.816;9.278;2022-12-18T15:41:24;-1.90;99.90
20345;DHT22;10330;48.816;9.278;2022-12-18T15:47:39;-2.00;99.90
20345;DHT22;10330;48.816;9.278;2022-12-18T15:50:05;-2.00;99.90
20345;DHT22;10330;48.816;9.278;2022-12-18T15:52:41;-2.10;99.90
20345;DHT22;10330;48.816;9.278;2022-12-18T15:55:19;-2.10;99.90
20345;DHT22;10330;48.816;9.278;2022-12-18T15:58:05;-2.10;99.90
20345;DHT22;10330;48.816;9.278;2022-12-18T16:00:38;-2.20;99.90
20345;DHT22;10330;48.816;9.278;2022-12-18T16:03:05;-2.20;99.90
20345;DHT22;10330;48.816;9.278;2022-12-18T16:05:32;-2.30;99.90
20345;DHT22;10330;48.816;9.278;2022-12-18T16:07:58;-2.30;99.90
20345;DHT22;10330;48.816;9.278;2022-12-18T16:10:26;-2.30;99.90
20345;DHT22;10330;48.816;9.278;2022-12-18T16:12:55;-2.40;99.90
20345;DHT22;10330;48.816;9.278;2022-12-18T16:15:21;-2.40;99.90
20345;DHT22;10330;48.816;9.278;2022-12-18T16:17:48;-2.40;99.90
20345;DHT22;10330;48.816;9.278;2022-12-18T16:20:20;-2.50;99.90
20345;DHT22;10330;48.816;9.278;2022-12-18T16:22:47;-2.50;99.90
20345;DHT22;10330;48.816;9.278;2022-12-18T16:25:24;-2.60;99.90
20345;DHT22;10330;48.816;9.278;2022-12-18T16:27:52;-2.60;99.90
20345;DHT22;10330;48.816;9.278;2022-12-18T16:30:24;-2.70;99.90
20345;DHT22;10330;48.816;9.278;2022-12-18T16:32:53;-2.70;99.90
20345;DHT22;10330;48.816;9.278;2022-12-18T16:35:20;-2.70;99.90
20345;DHT22;10330;48.816;9.278;2022-12-18T16:37:46;-2.70;99.90
20345;DHT22;10330;48.816;9.278;2022-12-18T16:40:14;-2.70;99.90
20345;DHT22;10330;48.816;9.278;2022-12-18T16:42:42;-2.70;99.90
20345;DHT22;10330;48.816;9.278;2022-12-18T16:45:11;-2.70;99.90
20345;DHT22;10330;48.816;9.278;2022-12-18T16:47:38;-2.70;99.90
20345;DHT22;10330;48.816;9.278;2022-12-18T16:53:55;-2.90;99.90
20345;DHT22;10330;48.816;9.278;2022-12-18T17:00:03;-2.80;99.90
20345;DHT22;10330;48.816;9.278;2022-12-18T17:02:29;-2.80;99.90
20345;DHT22;10330;48.816;9.278;2022-12-18T17:04:57;-2.80;99.90
20345;DHT22;10330;48.816;9.278;2022-12-18T17:07:24;-2.80;99.90
20345;DHT22;10330;48.816;9.278;2022-12-18T17:09:50;-2.80;99.90
20345;DHT22;10330;48.816;9.278;2022-12-18T17:12:19;-2.80;99.90
20345;DHT22;10330;48.816;9.278;2022-12-18T17:14:49;-2.80;99.90
20345;DHT22;10330;48.816;9.278;2022-12-18T17:17:15;-2.80;99.90
20345;DHT22;10330;48.816;9.278;2022-12-18T17:19:41;-2.90;99.90
20345;DHT22;10330;48.816;9.278;2022-12-18T17:22:07;-2.90;99.90
20345;DHT22;10330;48.816;9.278;2022-12-18T17:24:34;-2.90;99.90
20345;DHT22;10330;48.816;9.278;2022-12-18T17:27:02;-2.80;99.90
20345;DHT22;10330;48.816;9.278;2022-12-18T17:29:28;-2.80;99.90
20345;DHT22;10330;48.816;9.278;2022-12-18T17:31:54;-2.80;99.90
20345;DHT22;10330;48.816;9.278;2022-12-18T17:34:20;-2.80;99.90
20345;DHT22;10330;48.816;9.278;2022-12-18T17:40:35;-2.70;99.90
20345;DHT22;10330;48.816;9.278;2022-12-18T17:43:01;-2.70;99.90
20345;DHT22;10330;48.816;9.278;2022-12-18T17:45:27;-2.70;99.90
20345;DHT22;10330;48.816;9.278;2022-12-18T17:47:53;-2.70;99.90
20345;DHT22;10330;48.816;9.278;2022-12-18T17:50:20;-2.70;99.90
20345;DHT22;10330;48.816;9.278;2022-12-18T17:52:46;-2.60;99.90
20345;DHT22;10330;48.816;9.278;2022-12-18T17:55:12;-2.60;99.90
20345;DHT22;10330;48.816;9.278;2022-12-18T17:57:38;-2.60;99.90
20345;DHT22;10330;48.816;9.278;2022-12-18T18:00:05;-2.70;99.90
20345;DHT22;10330;48.816;9.278;2022-12-18T18:02:35;-2.70;99.90
20345;DHT22;10330;48.816;9.278;2022-12-18T18:05:01;-2.70;99.90
20345;DHT22;10330;48.816;9.278;2022-12-18T18:07:27;-2.70;99.90
20345;DHT22;10330;48.816;9.278;2022-12-18T18:09:54;-2.60;99.90
20345;DHT22;10330;48.816;9.278;2022-12-18T18:12:20;-2.60;99.90
20345;DHT22;10330;48.816;9.278;2022-12-18T18:15:05;-2.60;99.90
20345;DHT22;10330;48.816;9.278;2022-12-18T18:17:31;-2.60;99.90
20345;DHT22;10330;48.816;9.278;2022-12-18T18:19:59;-2.60;99.90
20345;DHT22;10330;48.816;9.278;2022-12-18T18:22:25;-2.60;99.90
20345;DHT22;10330;48.816;9.278;2022-12-18T18:24:52;-2.60;99.90